Main page
METAR-TAF:

METAR-TAF

Airports :

Zeltweg Air Base

Zeltweg, Austria

latitude: 47-12N, longitude: 014-45E, elevation: 677 m

Current weather observation

The report was made 38 minutes ago, at 15:50 UTC
Wind 7 kt from the Southeast, varying between East and South/Southeast
Temperature 19°C
Humidity 60%
Pressure 1024 hPa

METAR: LOXZ 181550Z 14007KT 100V160 20KM FEW060SC 19/11 Q1024 NOSIG

Time: 18:28 (16:28 UTC)

Forecast

The report was made 2 hours and 13 minutes ago, at 14:15 UTC
Forecast valid from 18 at 15 UTC to 18 at 24 UTC
Wind 3 kt from variable directions
Visibility 10 km or more
Few clouds at a height of 6000 ft

TAF: LOXZ 181415Z 1815/1824 VRB03KT 9999 FEW060

Weather observations and forecasts of more than 4000 airports (METAR and TAF reports).

The available stations are represented by yellow and red dots on the map.

Hover mouse over dot to see the name of the station.

Then click to see weather observations and forecasts.

To change the map : click on the green buttons with a black cross to zoom in, on the green button with a dash to zoom out, or on the green arrows for adjacent maps.


METAR-TAF: